createdAt,value
2022-12-01T00:01:14.445Z,29.55
2022-12-01T00:03:42.267Z,27.67
2022-12-01T00:06:15.540Z,28.98
2022-12-01T00:09:05.488Z,26.60
2022-12-01T00:11:33.098Z,26.95
2022-12-01T00:14:01.899Z,29.20
2022-12-01T00:16:32.379Z,26.85
2022-12-01T00:19:00.613Z,27.52
2022-12-01T00:21:29.028Z,26.05
2022-12-01T00:23:58.491Z,26.05
2022-12-01T00:26:27.660Z,28.60
2022-12-01T00:28:57.605Z,26.10
2022-12-01T00:31:26.250Z,29.88
2022-12-01T00:33:55.938Z,29.20
2022-12-01T00:36:24.606Z,28.38
2022-12-01T00:38:53.613Z,29.30
2022-12-01T00:41:21.817Z,31.50
2022-12-01T00:43:51.325Z,27.15
2022-12-01T00:46:19.539Z,28.00
2022-12-01T00:48:47.290Z,27.15
2022-12-01T00:51:16.443Z,28.20
2022-12-01T00:53:44.146Z,27.20
2022-12-01T00:56:11.902Z,27.20
2022-12-01T00:58:39.611Z,25.17
2022-12-01T01:01:07.467Z,26.02
2022-12-01T01:03:36.115Z,27.17
2022-12-01T01:06:06.655Z,23.42
2022-12-01T01:08:36.202Z,24.73
2022-12-01T01:11:04.840Z,21.58
2022-12-01T01:13:33.367Z,20.63
2022-12-01T01:16:02.335Z,21.27
2022-12-01T01:18:30.577Z,19.63
2022-12-01T01:20:58.788Z,18.40
2022-12-01T01:23:27.087Z,19.30
2022-12-01T01:26:02.396Z,20.40
2022-12-01T01:28:31.445Z,22.20
2022-12-01T01:31:00.385Z,17.90
2022-12-01T01:33:28.089Z,21.42
2022-12-01T01:35:59.577Z,21.35
2022-12-01T01:38:27.375Z,23.33
2022-12-01T01:40:57.121Z,21.85
2022-12-01T01:43:41.532Z,21.42
2022-12-01T01:46:11.145Z,20.88
2022-12-01T01:48:41.546Z,20.60
2022-12-01T01:51:10.522Z,22.33
2022-12-01T01:53:39.037Z,21.25
2022-12-01T01:56:09.419Z,22.23
2022-12-01T01:58:38.442Z,24.17
2022-12-01T02:01:07.601Z,20.40
2022-12-01T02:03:38.130Z,22.65
2022-12-01T02:06:07.348Z,19.15
2022-12-01T02:08:38.114Z,23.02
2022-12-01T02:11:35.563Z,22.40
2022-12-01T02:14:15.060Z,23.65
2022-12-01T02:16:51.099Z,24.73
2022-12-01T02:19:44.036Z,23.40
2022-12-01T02:22:23.634Z,23.25
2022-12-01T02:25:22.236Z,26.05
2022-12-01T02:28:26.408Z,24.65
2022-12-01T02:30:59.731Z,25.85
2022-12-01T02:33:33.411Z,23.83
2022-12-01T02:36:05.513Z,26.40
2022-12-01T02:38:40.726Z,24.58
2022-12-01T02:41:15.952Z,24.40
2022-12-01T02:43:52.878Z,23.95
2022-12-01T02:46:27.726Z,28.48
2022-12-01T02:48:59.592Z,25.33
2022-12-01T02:51:30.543Z,26.30
2022-12-01T02:54:00.601Z,27.10
2022-12-01T02:56:28.497Z,23.50
2022-12-01T02:58:56.547Z,31.23
2022-12-01T03:01:37.911Z,25.65
2022-12-01T03:04:36.058Z,27.45
2022-12-01T03:07:13.724Z,30.30
2022-12-01T03:09:52.226Z,28.48
2022-12-01T03:12:30.144Z,30.33
2022-12-01T03:15:08.044Z,31.15
2022-12-01T03:17:45.373Z,31.45
2022-12-01T03:20:19.871Z,33.88
2022-12-01T03:22:54.890Z,34.63
2022-12-01T03:25:26.326Z,32.25
2022-12-01T03:28:20.216Z,33.80
2022-12-01T03:30:46.266Z,30.48
2022-12-01T03:33:21.565Z,31.38
2022-12-01T03:35:54.389Z,31.10
2022-12-01T03:38:26.169Z,31.85
2022-12-01T03:40:59.187Z,29.95
2022-12-01T03:43:32.704Z,32.38
2022-12-01T03:46:08.636Z,30.80
2022-12-01T03:48:39.134Z,32.22
2022-12-01T03:51:14.244Z,36.25
2022-12-01T03:53:51.625Z,35.85
2022-12-01T03:56:22.458Z,35.97
2022-12-01T03:58:53.916Z,33.65
2022-12-01T04:01:22.340Z,40.70
2022-12-01T04:03:51.634Z,34.50
2022-12-01T04:06:19.541Z,37.80
2022-12-01T04:08:47.286Z,33.72
2022-12-01T04:11:33.048Z,35.70
2022-12-01T04:14:00.951Z,38.67
2022-12-01T04:16:28.946Z,38.55
2022-12-01T04:18:58.071Z,39.25
2022-12-01T04:21:25.998Z,39.55
2022-12-01T04:24:02.826Z,41.60
2022-12-01T04:26:33.012Z,41.55
2022-12-01T04:29:01.051Z,42.33
2022-12-01T04:31:29.477Z,42.05
2022-12-01T04:33:59.663Z,44.15
2022-12-01T04:36:28.695Z,43.88
2022-12-01T04:38:56.601Z,44.83
2022-12-01T04:41:24.954Z,47.17
2022-12-01T04:43:53.800Z,44.30
2022-12-01T04:46:21.575Z,45.42
2022-12-01T04:48:49.666Z,44.20
2022-12-01T04:51:19.208Z,43.45
2022-12-01T04:53:46.883Z,44.00
2022-12-01T04:56:14.724Z,42.83
2022-12-01T04:58:42.447Z,42.20
2022-12-01T05:01:12.856Z,43.15
2022-12-01T05:03:42.560Z,41.03
2022-12-01T05:06:12.925Z,40.45
2022-12-01T05:08:42.449Z,39.30
2022-12-01T05:11:12.340Z,45.13
2022-12-01T05:13:40.832Z,41.60
2022-12-01T05:16:10.967Z,42.42
2022-12-01T05:18:39.123Z,40.67
2022-12-01T05:21:09.203Z,39.50
2022-12-01T05:23:38.620Z,47.95
2022-12-01T05:26:09.454Z,37.45
2022-12-01T05:28:39.050Z,39.75
2022-12-01T05:31:07.165Z,43.83
2022-12-01T05:33:35.106Z,37.95
2022-12-01T05:36:03.224Z,34.60
2022-12-01T05:38:30.865Z,36.55
2022-12-01T05:40:58.509Z,38.50
2022-12-01T05:43:29.602Z,36.70
2022-12-01T05:45:59.021Z,38.08
2022-12-01T05:48:27.326Z,36.33
2022-12-01T05:50:55.426Z,31.23
2022-12-01T05:53:23.363Z,31.77
2022-12-01T05:55:53.289Z,32.58
2022-12-01T05:58:21.099Z,29.98
2022-12-01T06:00:50.120Z,31.23
2022-12-01T06:03:17.793Z,31.23
2022-12-01T06:05:45.535Z,30.05
2022-12-01T06:08:13.367Z,27.33
2022-12-01T06:10:41.030Z,27.48
2022-12-01T06:13:08.773Z,26.25
2022-12-01T06:15:36.559Z,24.45
2022-12-01T06:18:05.735Z,27.33
2022-12-01T06:20:33.854Z,24.60
2022-12-01T06:23:01.547Z,26.88
2022-12-01T06:25:29.220Z,25.83
2022-12-01T06:27:57.464Z,28.20
2022-12-01T06:30:25.432Z,24.90
2022-12-01T06:32:53.286Z,25.65
2022-12-01T06:35:22.368Z,28.13
2022-12-01T06:37:50.164Z,30.15
2022-12-01T06:40:18.425Z,29.70
2022-12-01T06:42:46.124Z,28.73
2022-12-01T06:45:13.826Z,25.92
2022-12-01T06:47:41.742Z,26.05
2022-12-01T06:50:11.764Z,29.25
2022-12-01T06:52:40.970Z,27.65
2022-12-01T06:55:09.795Z,28.08
2022-12-01T06:57:38.222Z,30.83
2022-12-01T07:00:08.746Z,28.17
2022-12-01T07:02:37.551Z,30.27
2022-12-01T07:05:05.738Z,29.38
2022-12-01T07:07:37.271Z,25.50
2022-12-01T07:10:07.618Z,26.15
2022-12-01T07:12:35.658Z,29.15
2022-12-01T07:15:03.576Z,29.40
2022-12-01T07:17:31.450Z,26.60
2022-12-01T07:19:59.488Z,26.35
2022-12-01T07:22:32.406Z,28.40
2022-12-01T07:25:00.589Z,25.90
2022-12-01T07:27:31.804Z,25.55
2022-12-01T07:29:59.684Z,29.77
2022-12-01T07:32:27.684Z,26.92
2022-12-01T07:34:55.433Z,28.77
2022-12-01T07:37:23.132Z,32.10
2022-12-01T07:39:51.127Z,29.77
2022-12-01T07:42:18.897Z,27.85
2022-12-01T07:44:48.065Z,26.48
2022-12-01T07:47:16.113Z,27.25
2022-12-01T07:49:44.291Z,26.98
2022-12-01T07:52:12.309Z,30.52
2022-12-01T07:54:39.997Z,32.53
2022-12-01T07:57:09.013Z,24.75
2022-12-01T07:59:36.908Z,27.67
2022-12-01T08:02:06.172Z,28.92
2022-12-01T08:04:33.863Z,30.77
2022-12-01T08:07:01.518Z,29.67
2022-12-01T08:09:29.452Z,29.23
2022-12-01T08:11:57.068Z,29.23
2022-12-01T08:14:24.799Z,28.05
2022-12-01T08:16:52.485Z,30.63
2022-12-01T08:19:21.522Z,27.73
2022-12-01T08:21:49.225Z,27.13
2022-12-01T08:24:17.146Z,28.92
2022-12-01T08:26:44.954Z,29.33
2022-12-01T08:29:17.034Z,31.42
2022-12-01T08:31:47.897Z,28.80
2022-12-01T08:34:15.899Z,28.08
2022-12-01T08:36:45.011Z,32.60
2022-12-01T08:39:12.774Z,32.63
2022-12-01T08:41:40.475Z,31.73
2022-12-01T08:44:08.193Z,36.15
2022-12-01T08:46:37.085Z,35.03
2022-12-01T08:49:06.629Z,32.05
2022-12-01T08:51:34.473Z,34.78
2022-12-01T08:54:04.009Z,30.50
2022-12-01T08:56:34.323Z,32.10
2022-12-01T08:59:02.385Z,31.25
2022-12-01T09:01:30.713Z,34.53
2022-12-01T09:04:09.157Z,32.92
2022-12-01T09:06:41.608Z,31.20
2022-12-01T09:09:13.022Z,29.33
2022-12-01T09:11:43.548Z,35.88
2022-12-01T09:14:11.634Z,29.52
2022-12-01T09:16:39.551Z,29.23
2022-12-01T09:19:07.670Z,31.25
2022-12-01T09:21:37.985Z,30.57
2022-12-01T09:24:07.719Z,32.53
2022-12-01T09:26:36.850Z,28.20
2022-12-01T09:29:06.540Z,29.90
2022-12-01T09:31:35.549Z,31.73
2022-12-01T09:34:05.512Z,29.17
2022-12-01T09:36:35.553Z,26.90
2022-12-01T09:39:04.630Z,29.73
2022-12-01T09:41:35.125Z,26.38
2022-12-01T09:44:14.161Z,25.77
2022-12-01T09:46:47.867Z,26.83
2022-12-01T09:49:19.863Z,26.13
2022-12-01T09:51:47.735Z,24.27
2022-12-01T09:54:16.236Z,25.52
2022-12-01T09:56:46.490Z,24.25
2022-12-01T09:59:22.432Z,23.67
2022-12-01T10:01:55.548Z,24.77
2022-12-01T10:04:30.196Z,24.63
2022-12-01T10:07:02.323Z,23.80
2022-12-01T10:09:36.807Z,25.27
2022-12-01T10:12:14.164Z,22.92
2022-12-01T10:14:46.023Z,25.13
2022-12-01T10:17:26.457Z,21.83
2022-12-01T10:20:01.003Z,22.95
2022-12-01T10:23:04.371Z,22.52
2022-12-01T10:25:38.254Z,24.88
2022-12-01T10:28:24.592Z,25.60
2022-12-01T10:30:58.855Z,25.17
2022-12-01T10:33:31.818Z,25.23
2022-12-01T10:35:59.940Z,26.48
2022-12-01T10:38:32.547Z,23.95
2022-12-01T10:41:02.299Z,22.27
2022-12-01T10:43:35.478Z,21.08
2022-12-01T10:46:15.516Z,22.13
2022-12-01T10:48:54.736Z,24.77
2022-12-01T10:51:23.675Z,23.20
2022-12-01T10:53:59.609Z,20.90
2022-12-01T10:56:28.072Z,21.88
2022-12-01T10:58:58.962Z,22.73
2022-12-01T11:01:30.967Z,19.25
2022-12-01T11:04:02.523Z,20.52
2022-12-01T11:06:32.601Z,20.65
2022-12-01T11:09:02.460Z,19.85
2022-12-01T11:11:34.235Z,19.80
2022-12-01T11:14:04.374Z,17.92
2022-12-01T11:16:40.835Z,18.40
2022-12-01T11:19:21.889Z,17.58
2022-12-01T11:21:56.562Z,16.30
2022-12-01T11:24:34.504Z,15.57
2022-12-01T11:27:02.386Z,17.70
2022-12-01T11:29:36.210Z,17.35
2022-12-01T11:32:21.441Z,17.83
2022-12-01T11:34:53.127Z,20.73
2022-12-01T11:37:24.087Z,17.88
2022-12-01T11:39:53.222Z,17.35
2022-12-01T11:42:25.975Z,16.52
2022-12-01T11:44:57.089Z,18.30
2022-12-01T11:47:28.305Z,19.20
2022-12-01T11:49:59.016Z,18.17
2022-12-01T11:52:31.416Z,21.15
2022-12-01T11:55:19.770Z,19.73
2022-12-01T11:57:50.899Z,18.58
2022-12-01T12:00:21.300Z,17.83
2022-12-01T12:03:06.423Z,18.70
2022-12-01T12:06:32.360Z,19.58
2022-12-01T12:09:12.323Z,17.92
2022-12-01T12:11:48.731Z,17.85
2022-12-01T12:14:30.875Z,18.85
2022-12-01T12:17:16.301Z,21.08
2022-12-01T12:20:12.881Z,23.77
2022-12-01T12:22:55.829Z,20.17
2022-12-01T12:25:33.404Z,19.42
2022-12-01T12:28:19.436Z,19.98
2022-12-01T12:30:55.337Z,21.48
2022-12-01T12:33:54.432Z,20.48
2022-12-01T12:36:34.899Z,19.38
2022-12-01T12:39:16.547Z,19.40
2022-12-01T12:41:47.377Z,18.52
2022-12-01T12:44:37.557Z,21.10
2022-12-01T12:47:19.417Z,21.92
2022-12-01T12:49:54.752Z,23.23
2022-12-01T12:52:26.995Z,21.42
2022-12-01T12:54:58.205Z,20.45
2022-12-01T12:57:30.494Z,20.98
2022-12-01T13:00:01.992Z,24.27
2022-12-01T13:02:37.261Z,21.98
2022-12-01T13:05:11.271Z,22.17
2022-12-01T13:07:45.830Z,21.48
2022-12-01T13:10:22.840Z,20.73
2022-12-01T13:12:58.452Z,27.77
2022-12-01T13:15:27.617Z,23.83
2022-12-01T13:17:59.431Z,19.90
2022-12-01T13:20:29.938Z,20.58
2022-12-01T13:23:01.989Z,22.90
2022-12-01T13:25:34.017Z,21.20
2022-12-01T13:28:04.442Z,21.73
2022-12-01T13:30:32.673Z,22.20
2022-12-01T13:33:03.665Z,23.23
2022-12-01T13:35:34.133Z,22.02
2022-12-01T13:38:24.763Z,21.38
2022-12-01T13:41:23.772Z,23.92
2022-12-01T13:43:59.523Z,25.63
2022-12-01T13:46:30.508Z,26.20
2022-12-01T13:49:00.239Z,26.52
2022-12-01T13:51:28.718Z,28.00
2022-12-01T13:54:03.207Z,27.15
2022-12-01T13:56:47.646Z,26.98
2022-12-01T13:59:41.153Z,30.58
2022-12-01T14:02:18.214Z,30.58
2022-12-01T14:04:46.467Z,31.95
2022-12-01T14:07:28.437Z,36.92
2022-12-01T14:10:08.779Z,32.28
2022-12-01T14:12:41.564Z,29.35
2022-12-01T14:15:31.158Z,32.95
2022-12-01T14:18:02.075Z,35.75
2022-12-01T14:20:33.341Z,35.50
2022-12-01T14:23:14.019Z,32.83
2022-12-01T14:25:44.156Z,32.50
2022-12-01T14:28:18.548Z,34.40
2022-12-01T14:31:06.050Z,35.15
2022-12-01T14:34:02.247Z,33.53
2022-12-01T14:36:37.705Z,33.10
2022-12-01T14:39:13.476Z,34.42
2022-12-01T14:41:48.304Z,32.50
2022-12-01T14:44:25.496Z,33.85
2022-12-01T14:46:59.402Z,33.58
2022-12-01T14:49:32.380Z,35.00
2022-12-01T14:52:05.529Z,30.23
2022-12-01T14:54:40.122Z,43.53
2022-12-01T14:57:16.362Z,47.45
2022-12-01T14:59:44.614Z,51.08
2022-12-01T15:02:13.408Z,48.00
2022-12-01T15:05:09.628Z,41.92
2022-12-01T15:07:39.753Z,40.85
2022-12-01T15:10:18.029Z,43.83
2022-12-01T15:12:47.432Z,45.03
2022-12-01T15:15:21.074Z,49.15
2022-12-01T15:17:53.173Z,42.00
2022-12-01T15:20:32.832Z,38.55
2022-12-01T15:23:02.146Z,38.33
2022-12-01T15:25:35.632Z,36.42
2022-12-01T15:28:12.880Z,38.17
2022-12-01T15:30:41.653Z,32.83
2022-12-01T15:33:17.231Z,38.28
2022-12-01T15:35:47.166Z,39.90
2022-12-01T15:38:19.586Z,39.53
2022-12-01T15:43:41.284Z,41.93
2022-12-01T15:46:14.879Z,36.83
2022-12-01T15:48:43.181Z,36.63
2022-12-01T15:51:16.582Z,40.00
2022-12-01T15:53:50.021Z,49.55
2022-12-01T15:56:25.447Z,46.67
2022-12-01T15:58:57.814Z,45.85
2022-12-01T16:01:31.182Z,45.93
2022-12-01T16:04:03.697Z,38.57
2022-12-01T16:06:34.121Z,39.67
2022-12-01T16:09:04.843Z,36.22
2022-12-01T16:11:32.959Z,34.03
2022-12-01T16:14:06.127Z,34.47
2022-12-01T16:16:44.305Z,36.57
2022-12-01T16:19:30.354Z,35.23
2022-12-01T16:22:05.098Z,38.13
2022-12-01T16:24:36.753Z,38.65
2022-12-01T16:27:06.773Z,36.15
2022-12-01T16:29:48.817Z,36.33
2022-12-01T16:32:21.384Z,35.93
2022-12-01T16:34:51.050Z,40.33
2022-12-01T16:37:18.795Z,33.73
2022-12-01T16:39:46.641Z,33.20
2022-12-01T16:42:16.910Z,35.75
2022-12-01T16:44:46.505Z,35.43
2022-12-01T16:47:16.226Z,35.58
2022-12-01T16:49:43.905Z,37.30
2022-12-01T16:54:59.876Z,39.00
2022-12-01T16:57:27.774Z,36.43
2022-12-01T16:59:56.861Z,45.10
2022-12-01T17:02:24.656Z,40.13
2022-12-01T17:04:52.904Z,37.17
2022-12-01T17:07:20.747Z,34.37
2022-12-01T17:09:48.495Z,41.77
2022-12-01T17:12:16.106Z,36.40
2022-12-01T17:14:44.173Z,35.42
2022-12-01T17:17:13.230Z,35.83
2022-12-01T17:19:41.044Z,33.60
2022-12-01T17:22:08.774Z,32.30
2022-12-01T17:24:37.001Z,31.02
2022-12-01T17:27:04.757Z,35.17
2022-12-01T17:29:32.637Z,37.47
2022-12-01T17:32:00.351Z,36.50
2022-12-01T17:34:29.479Z,41.60
2022-12-01T17:36:57.679Z,39.65
2022-12-01T17:39:25.594Z,40.45
2022-12-01T17:41:54.862Z,40.65
2022-12-01T17:44:22.612Z,43.93
2022-12-01T17:46:50.287Z,40.80
2022-12-01T17:49:18.153Z,35.33
2022-12-01T17:51:47.281Z,40.30
2022-12-01T17:54:15.303Z,35.80
2022-12-01T17:56:43.601Z,34.87
2022-12-01T17:59:11.618Z,31.60
2022-12-01T18:01:41.015Z,34.53
2022-12-01T18:04:08.812Z,32.70
2022-12-01T18:06:36.734Z,34.83
2022-12-01T18:09:06.284Z,30.63
2022-12-01T18:11:34.436Z,32.47
2022-12-01T18:14:02.434Z,36.00
2022-12-01T18:16:32.197Z,35.78
2022-12-01T18:19:02.519Z,32.03
2022-12-01T18:21:30.701Z,32.00
2022-12-01T18:24:02.697Z,34.45
2022-12-01T18:26:35.322Z,33.05
2022-12-01T18:29:05.422Z,31.83
2022-12-01T18:31:34.369Z,32.37
2022-12-01T18:34:04.327Z,32.80
2022-12-01T18:36:34.425Z,35.53
2022-12-01T18:39:03.788Z,38.20
2022-12-01T18:41:32.889Z,38.05
2022-12-01T18:44:00.633Z,36.08
2022-12-01T18:46:28.942Z,36.30
2022-12-01T18:49:02.031Z,37.83
2022-12-01T18:51:30.741Z,34.92
2022-12-01T18:54:00.335Z,38.60
2022-12-01T18:56:28.429Z,34.30
2022-12-01T18:58:59.026Z,33.30
2022-12-01T19:01:28.412Z,36.08
2022-12-01T19:03:57.057Z,38.05
2022-12-01T19:06:25.370Z,32.85
2022-12-01T19:08:54.090Z,33.58
2022-12-01T19:11:22.681Z,32.60
2022-12-01T19:13:50.836Z,33.87
2022-12-01T19:16:21.217Z,34.00
2022-12-01T19:18:49.257Z,34.73
2022-12-01T19:21:19.064Z,35.08
2022-12-01T19:23:47.662Z,34.25
2022-12-01T19:26:17.770Z,37.58
2022-12-01T19:28:46.616Z,34.05
2022-12-01T19:31:17.152Z,36.72
2022-12-01T19:33:46.963Z,33.97
2022-12-01T19:36:16.500Z,35.88
2022-12-01T19:38:45.564Z,33.80
2022-12-01T19:41:14.405Z,37.30
2022-12-01T19:43:43.369Z,39.83
2022-12-01T19:46:13.544Z,37.53
2022-12-01T19:48:41.580Z,37.33
2022-12-01T19:51:17.464Z,38.83
2022-12-01T19:53:45.182Z,37.80
2022-12-01T19:56:13.559Z,34.60
2022-12-01T19:58:41.684Z,40.97
2022-12-01T20:01:12.099Z,36.22
2022-12-01T20:03:40.672Z,35.97
2022-12-01T20:06:12.361Z,38.17
2022-12-01T20:08:41.361Z,38.28
2022-12-01T20:11:09.888Z,40.10
2022-12-01T20:13:40.673Z,40.67
2022-12-01T20:16:10.213Z,39.75
2022-12-01T20:18:39.003Z,39.33
2022-12-01T20:21:08.612Z,39.03
2022-12-01T20:23:38.025Z,34.93
2022-12-01T20:26:08.148Z,37.28
2022-12-01T20:28:37.016Z,38.20
2022-12-01T20:31:10.821Z,36.67
2022-12-01T20:33:39.751Z,34.67
2022-12-01T20:36:09.413Z,36.53
2022-12-01T20:38:40.074Z,39.37
2022-12-01T20:41:08.673Z,36.00
2022-12-01T20:43:36.980Z,33.57
2022-12-01T20:46:05.813Z,36.35
2022-12-01T20:48:34.400Z,37.03
2022-12-01T20:51:02.974Z,37.83
2022-12-01T20:53:31.101Z,36.07
2022-12-01T20:56:02.946Z,32.70
2022-12-01T20:58:35.907Z,33.60
2022-12-01T21:01:09.096Z,36.10
2022-12-01T21:03:38.982Z,34.30
2022-12-01T21:06:07.116Z,36.22
2022-12-01T21:08:35.388Z,36.33
2022-12-01T21:11:07.125Z,33.77
2022-12-01T21:13:42.138Z,33.65
2022-12-01T21:16:20.276Z,33.83
2022-12-01T21:18:51.792Z,34.70
2022-12-01T21:21:25.199Z,35.00
2022-12-01T21:24:11.499Z,33.53
2022-12-01T21:26:42.216Z,37.03
2022-12-01T21:29:18.898Z,36.50
2022-12-01T21:31:47.394Z,35.08
2022-12-01T21:34:18.683Z,36.15
2022-12-01T21:36:47.802Z,35.25
2022-12-01T21:39:18.297Z,37.05
2022-12-01T21:41:49.286Z,36.55
2022-12-01T21:44:19.377Z,37.05
2022-12-01T21:46:47.746Z,35.43
2022-12-01T21:49:18.937Z,34.22
2022-12-01T21:51:47.852Z,38.50
2022-12-01T21:54:19.905Z,39.60
2022-12-01T21:56:50.175Z,39.17
2022-12-01T21:59:20.837Z,39.63
2022-12-01T22:01:51.786Z,37.17
2022-12-01T22:04:21.526Z,40.22
2022-12-01T22:06:52.006Z,39.22
2022-12-01T22:09:25.968Z,39.95
2022-12-01T22:11:57.138Z,40.42
2022-12-01T22:14:28.243Z,40.83
2022-12-01T22:16:58.965Z,44.63
2022-12-01T22:19:29.697Z,39.70
2022-12-01T22:22:02.576Z,40.05
2022-12-01T22:24:41.203Z,35.67
2022-12-01T22:27:28.129Z,37.13
2022-12-01T22:29:59.222Z,39.75
2022-12-01T22:32:55.540Z,39.50
2022-12-01T22:35:26.608Z,36.92
2022-12-01T22:37:56.094Z,36.45
2022-12-01T22:40:38.918Z,39.85
2022-12-01T22:43:23.129Z,38.85
2022-12-01T22:45:58.429Z,35.50
2022-12-01T22:48:34.566Z,41.03
2022-12-01T22:51:29.874Z,35.70
2022-12-01T22:54:21.547Z,38.23
2022-12-01T22:56:51.384Z,36.42
2022-12-01T22:59:23.718Z,39.63
2022-12-01T23:01:55.252Z,38.75
2022-12-01T23:04:27.253Z,38.77
2022-12-01T23:07:02.420Z,41.53
2022-12-01T23:09:37.153Z,42.38
2022-12-01T23:12:28.879Z,39.20
2022-12-01T23:15:00.412Z,39.30
2022-12-01T23:17:30.771Z,38.80
2022-12-01T23:20:20.155Z,40.03
2022-12-01T23:22:48.329Z,40.03
2022-12-01T23:25:18.682Z,37.10
2022-12-01T23:27:48.280Z,41.23
2022-12-01T23:30:19.142Z,42.17
2022-12-01T23:32:54.454Z,41.67
2022-12-01T23:35:22.142Z,36.77
2022-12-01T23:37:50.058Z,41.90
2022-12-01T23:40:21.261Z,40.60
2022-12-01T23:42:49.104Z,38.80
2022-12-01T23:45:22.501Z,41.13
2022-12-01T23:47:51.568Z,40.93
2022-12-01T23:50:22.569Z,40.13
2022-12-01T23:52:50.298Z,42.07
2022-12-01T23:55:24.280Z,41.60
2022-12-01T23:57:52.803Z,42.10
